sensor_id;sensor_type;location;lat;lon;timestamp;temperature;humidity
40636;DHT22;26642;55.766;37.828;2023-02-25T00:01:07;8.70;57.40
40636;DHT22;26642;55.766;37.828;2023-02-25T00:03:34;8.70;57.40
40636;DHT22;26642;55.766;37.828;2023-02-25T00:06:01;8.70;57.40
40636;DHT22;26642;55.766;37.828;2023-02-25T00:08:28;8.70;57.30
40636;DHT22;26642;55.766;37.828;2023-02-25T00:10:58;8.70;57.30
40636;DHT22;26642;55.766;37.828;2023-02-25T00:13:25;8.70;57.40
40636;DHT22;26642;55.766;37.828;2023-02-25T00:15:51;8.70;57.40
40636;DHT22;26642;55.766;37.828;2023-02-25T00:18:17;8.70;57.40
40636;DHT22;26642;55.766;37.828;2023-02-25T00:20:43;8.70;57.40
40636;DHT22;26642;55.766;37.828;2023-02-25T00:23:09;8.70;57.40
40636;DHT22;26642;55.766;37.828;2023-02-25T00:25:35;8.70;57.30
40636;DHT22;26642;55.766;37.828;2023-02-25T00:28:02;8.70;57.30
40636;DHT22;26642;55.766;37.828;2023-02-25T00:30:32;8.70;57.40
40636;DHT22;26642;55.766;37.828;2023-02-25T00:32:58;8.70;57.30
40636;DHT22;26642;55.766;37.828;2023-02-25T00:35:24;8.70;57.30
40636;DHT22;26642;55.766;37.828;2023-02-25T00:37:51;8.70;57.50
40636;DHT22;26642;55.766;37.828;2023-02-25T00:40:17;8.70;57.40
40636;DHT22;26642;55.766;37.828;2023-02-25T00:42:43;8.70;57.50
40636;DHT22;26642;55.766;37.828;2023-02-25T00:45:10;8.70;57.70
40636;DHT22;26642;55.766;37.828;2023-02-25T00:47:37;8.70;57.70
40636;DHT22;26642;55.766;37.828;2023-02-25T00:50:05;8.70;57.60
40636;DHT22;26642;55.766;37.828;2023-02-25T00:52:32;8.80;57.60
40636;DHT22;26642;55.766;37.828;2023-02-25T00:54:58;8.80;57.60
40636;DHT22;26642;55.766;37.828;2023-02-25T00:57:24;8.70;57.40
40636;DHT22;26642;55.766;37.828;2023-02-25T00:59:50;8.80;57.50
40636;DHT22;26642;55.766;37.828;2023-02-25T01:02:19;8.70;57.50
40636;DHT22;26642;55.766;37.828;2023-02-25T01:04:45;8.80;57.50
40636;DHT22;26642;55.766;37.828;2023-02-25T01:07:11;8.70;57.30
40636;DHT22;26642;55.766;37.828;2023-02-25T01:09:38;8.80;57.40
40636;DHT22;26642;55.766;37.828;2023-02-25T01:12:06;8.80;57.40
40636;DHT22;26642;55.766;37.828;2023-02-25T01:14:33;8.80;57.40
40636;DHT22;26642;55.766;37.828;2023-02-25T01:17:03;8.80;57.40
40636;DHT22;26642;55.766;37.828;2023-02-25T01:19:38;8.80;57.50
40636;DHT22;26642;55.766;37.828;2023-02-25T01:22:07;8.80;57.40
40636;DHT22;26642;55.766;37.828;2023-02-25T01:24:33;8.80;57.40
40636;DHT22;26642;55.766;37.828;2023-02-25T01:27:01;8.80;57.40
40636;DHT22;26642;55.766;37.828;2023-02-25T01:29:30;8.80;57.40
40636;DHT22;26642;55.766;37.828;2023-02-25T01:31:59;8.80;57.50
40636;DHT22;26642;55.766;37.828;2023-02-25T01:34:29;8.80;57.40
40636;DHT22;26642;55.766;37.828;2023-02-25T01:37:01;8.80;57.50
40636;DHT22;26642;55.766;37.828;2023-02-25T01:39:27;8.80;57.50
40636;DHT22;26642;55.766;37.828;2023-02-25T01:42:00;8.80;57.50
40636;DHT22;26642;55.766;37.828;2023-02-25T01:44:32;8.80;57.50
40636;DHT22;26642;55.766;37.828;2023-02-25T01:47:01;8.80;57.60
40636;DHT22;26642;55.766;37.828;2023-02-25T01:49:44;8.80;57.50
40636;DHT22;26642;55.766;37.828;2023-02-25T01:52:22;8.80;57.50
40636;DHT22;26642;55.766;37.828;2023-02-25T01:54:54;8.80;57.50
40636;DHT22;26642;55.766;37.828;2023-02-25T01:57:21;8.80;57.50
40636;DHT22;26642;55.766;37.828;2023-02-25T01:59:49;8.80;57.60
40636;DHT22;26642;55.766;37.828;2023-02-25T02:02:20;8.80;57.50
40636;DHT22;26642;55.766;37.828;2023-02-25T02:04:48;8.80;57.50
40636;DHT22;26642;55.766;37.828;2023-02-25T02:07:20;8.80;57.50
40636;DHT22;26642;55.766;37.828;2023-02-25T02:09:46;8.80;57.50
40636;DHT22;26642;55.766;37.828;2023-02-25T02:12:31;8.90;57.60
40636;DHT22;26642;55.766;37.828;2023-02-25T02:15:01;8.80;57.60
40636;DHT22;26642;55.766;37.828;2023-02-25T02:17:34;8.80;57.60
40636;DHT22;26642;55.766;37.828;2023-02-25T02:20:15;8.90;57.70
40636;DHT22;26642;55.766;37.828;2023-02-25T02:22:50;8.90;57.80
40636;DHT22;26642;55.766;37.828;2023-02-25T02:25:40;8.90;57.60
40636;DHT22;26642;55.766;37.828;2023-02-25T02:44:51;8.90;57.60
40636;DHT22;26642;55.766;37.828;2023-02-25T02:47:24;8.90;57.60
40636;DHT22;26642;55.766;37.828;2023-02-25T02:50:02;8.90;57.50
40636;DHT22;26642;55.766;37.828;2023-02-25T02:52:33;8.80;57.50
40636;DHT22;26642;55.766;37.828;2023-02-25T02:55:12;8.90;57.50
40636;DHT22;26642;55.766;37.828;2023-02-25T02:57:51;8.90;57.50
40636;DHT22;26642;55.766;37.828;2023-02-25T03:00:21;8.90;57.60
40636;DHT22;26642;55.766;37.828;2023-02-25T03:03:02;8.90;57.60
40636;DHT22;26642;55.766;37.828;2023-02-25T03:05:32;8.90;57.70
40636;DHT22;26642;55.766;37.828;2023-02-25T03:08:05;8.90;57.70
40636;DHT22;26642;55.766;37.828;2023-02-25T03:10:33;8.90;57.70
40636;DHT22;26642;55.766;37.828;2023-02-25T03:12:59;8.90;57.80
40636;DHT22;26642;55.766;37.828;2023-02-25T03:15:27;8.90;57.70
40636;DHT22;26642;55.766;37.828;2023-02-25T03:18:02;8.90;57.70
40636;DHT22;26642;55.766;37.828;2023-02-25T03:20:36;8.90;57.70
40636;DHT22;26642;55.766;37.828;2023-02-25T03:23:12;8.90;57.60
40636;DHT22;26642;55.766;37.828;2023-02-25T03:25:46;8.90;57.70
40636;DHT22;26642;55.766;37.828;2023-02-25T03:28:26;8.90;57.70
40636;DHT22;26642;55.766;37.828;2023-02-25T03:33:38;8.90;57.70
40636;DHT22;26642;55.766;37.828;2023-02-25T03:36:11;9.00;57.70
40636;DHT22;26642;55.766;37.828;2023-02-25T03:38:44;9.00;57.80
40636;DHT22;26642;55.766;37.828;2023-02-25T03:41:14;8.90;57.80
40636;DHT22;26642;55.766;37.828;2023-02-25T03:43:45;8.90;57.80
40636;DHT22;26642;55.766;37.828;2023-02-25T03:46:13;9.00;57.80
40636;DHT22;26642;55.766;37.828;2023-02-25T03:48:41;9.00;57.80
40636;DHT22;26642;55.766;37.828;2023-02-25T03:51:11;8.90;57.80
40636;DHT22;26642;55.766;37.828;2023-02-25T03:53:40;9.00;57.90
40636;DHT22;26642;55.766;37.828;2023-02-25T03:56:26;9.00;58.00
40636;DHT22;26642;55.766;37.828;2023-02-25T03:58:53;9.00;58.20
40636;DHT22;26642;55.766;37.828;2023-02-25T04:01:27;8.90;58.10
40636;DHT22;26642;55.766;37.828;2023-02-25T04:03:54;9.00;58.10
40636;DHT22;26642;55.766;37.828;2023-02-25T04:06:22;9.00;58.10
40636;DHT22;26642;55.766;37.828;2023-02-25T04:08:50;9.00;58.10
40636;DHT22;26642;55.766;37.828;2023-02-25T04:11:16;9.00;58.10
40636;DHT22;26642;55.766;37.828;2023-02-25T04:13:43;9.00;58.10
40636;DHT22;26642;55.766;37.828;2023-02-25T04:16:09;9.00;58.10
40636;DHT22;26642;55.766;37.828;2023-02-25T04:18:35;9.00;58.00
40636;DHT22;26642;55.766;37.828;2023-02-25T04:21:05;9.00;58.10
40636;DHT22;26642;55.766;37.828;2023-02-25T04:23:33;9.00;58.10
40636;DHT22;26642;55.766;37.828;2023-02-25T04:25:59;9.00;58.00
40636;DHT22;26642;55.766;37.828;2023-02-25T04:28:25;9.00;58.00
40636;DHT22;26642;55.766;37.828;2023-02-25T04:30:51;9.00;58.00
40636;DHT22;26642;55.766;37.828;2023-02-25T04:33:17;9.00;58.00
40636;DHT22;26642;55.766;37.828;2023-02-25T04:35:43;9.00;58.00
40636;DHT22;26642;55.766;37.828;2023-02-25T04:38:09;9.00;58.00
40636;DHT22;26642;55.766;37.828;2023-02-25T04:40:35;9.00;58.10
40636;DHT22;26642;55.766;37.828;2023-02-25T04:43:02;9.00;58.10
40636;DHT22;26642;55.766;37.828;2023-02-25T04:45:28;9.00;58.10
40636;DHT22;26642;55.766;37.828;2023-02-25T04:47:54;9.00;58.20
40636;DHT22;26642;55.766;37.828;2023-02-25T04:50:23;9.00;58.10
40636;DHT22;26642;55.766;37.828;2023-02-25T04:52:49;9.00;58.20
40636;DHT22;26642;55.766;37.828;2023-02-25T04:55:15;9.10;58.20
40636;DHT22;26642;55.766;37.828;2023-02-25T04:57:41;9.00;58.20
40636;DHT22;26642;55.766;37.828;2023-02-25T05:00:17;9.10;58.30
40636;DHT22;26642;55.766;37.828;2023-02-25T05:02:47;9.10;58.30
40636;DHT22;26642;55.766;37.828;2023-02-25T05:05:13;9.00;58.20
40636;DHT22;26642;55.766;37.828;2023-02-25T05:07:40;9.10;58.30
40636;DHT22;26642;55.766;37.828;2023-02-25T05:10:08;9.10;58.30
40636;DHT22;26642;55.766;37.828;2023-02-25T05:12:35;9.10;58.40
40636;DHT22;26642;55.766;37.828;2023-02-25T05:15:01;9.10;58.30
40636;DHT22;26642;55.766;37.828;2023-02-25T05:17:31;9.10;58.30
40636;DHT22;26642;55.766;37.828;2023-02-25T05:19:57;9.10;58.30
40636;DHT22;26642;55.766;37.828;2023-02-25T05:22:24;9.10;58.30
40636;DHT22;26642;55.766;37.828;2023-02-25T05:24:50;9.10;58.40
40636;DHT22;26642;55.766;37.828;2023-02-25T05:27:16;9.10;58.40
40636;DHT22;26642;55.766;37.828;2023-02-25T05:29:42;9.10;58.40
40636;DHT22;26642;55.766;37.828;2023-02-25T05:32:08;9.10;58.40
40636;DHT22;26642;55.766;37.828;2023-02-25T05:34:34;9.20;58.60
40636;DHT22;26642;55.766;37.828;2023-02-25T05:37:00;9.10;58.50
40636;DHT22;26642;55.766;37.828;2023-02-25T05:39:26;9.20;58.60
40636;DHT22;26642;55.766;37.828;2023-02-25T05:41:52;9.20;58.50
40636;DHT22;26642;55.766;37.828;2023-02-25T05:44:19;9.20;58.50
40636;DHT22;26642;55.766;37.828;2023-02-25T05:46:45;9.20;58.60
40636;DHT22;26642;55.766;37.828;2023-02-25T05:49:11;9.20;58.70
40636;DHT22;26642;55.766;37.828;2023-02-25T05:51:37;9.20;58.70
40636;DHT22;26642;55.766;37.828;2023-02-25T05:54:03;9.20;58.60
40636;DHT22;26642;55.766;37.828;2023-02-25T05:56:29;9.20;58.70
40636;DHT22;26642;55.766;37.828;2023-02-25T05:58:56;9.30;58.80
40636;DHT22;26642;55.766;37.828;2023-02-25T06:01:24;9.20;58.70
40636;DHT22;26642;55.766;37.828;2023-02-25T06:03:52;9.30;58.80
40636;DHT22;26642;55.766;37.828;2023-02-25T06:06:24;9.30;58.80
40636;DHT22;26642;55.766;37.828;2023-02-25T06:08:52;9.30;58.80
40636;DHT22;26642;55.766;37.828;2023-02-25T06:11:23;9.30;58.70
40636;DHT22;26642;55.766;37.828;2023-02-25T06:13:51;9.30;58.70
40636;DHT22;26642;55.766;37.828;2023-02-25T06:16:18;9.30;58.80
40636;DHT22;26642;55.766;37.828;2023-02-25T06:18:45;9.30;58.80
40636;DHT22;26642;55.766;37.828;2023-02-25T06:21:12;9.30;58.90
40636;DHT22;26642;55.766;37.828;2023-02-25T06:23:40;9.40;59.00
40636;DHT22;26642;55.766;37.828;2023-02-25T06:26:07;9.40;59.10
40636;DHT22;26642;55.766;37.828;2023-02-25T06:28:35;9.40;59.10
40636;DHT22;26642;55.766;37.828;2023-02-25T06:31:01;9.40;59.10
40636;DHT22;26642;55.766;37.828;2023-02-25T06:33:30;9.40;59.10
40636;DHT22;26642;55.766;37.828;2023-02-25T06:35:56;9.40;59.00
40636;DHT22;26642;55.766;37.828;2023-02-25T06:38:23;9.40;58.90
40636;DHT22;26642;55.766;37.828;2023-02-25T06:40:50;9.50;59.00
40636;DHT22;26642;55.766;37.828;2023-02-25T06:43:16;9.50;59.10
40636;DHT22;26642;55.766;37.828;2023-02-25T06:45:42;9.50;59.00
40636;DHT22;26642;55.766;37.828;2023-02-25T06:48:08;9.50;59.00
40636;DHT22;26642;55.766;37.828;2023-02-25T06:50:38;9.50;58.80
40636;DHT22;26642;55.766;37.828;2023-02-25T06:53:04;9.50;58.80
40636;DHT22;26642;55.766;37.828;2023-02-25T06:55:30;9.50;58.80
40636;DHT22;26642;55.766;37.828;2023-02-25T06:57:56;9.60;58.80
40636;DHT22;26642;55.766;37.828;2023-02-25T07:00:22;9.50;58.80
40636;DHT22;26642;55.766;37.828;2023-02-25T07:02:48;9.60;58.70
40636;DHT22;26642;55.766;37.828;2023-02-25T07:05:14;9.60;58.80
40636;DHT22;26642;55.766;37.828;2023-02-25T07:07:40;9.60;58.70
40636;DHT22;26642;55.766;37.828;2023-02-25T07:10:06;9.60;58.70
40636;DHT22;26642;55.766;37.828;2023-02-25T07:12:33;9.60;58.60
40636;DHT22;26642;55.766;37.828;2023-02-25T07:14:59;9.60;58.60
40636;DHT22;26642;55.766;37.828;2023-02-25T07:17:24;9.60;58.70
40636;DHT22;26642;55.766;37.828;2023-02-25T07:19:50;9.60;58.60
40636;DHT22;26642;55.766;37.828;2023-02-25T07:22:17;9.70;58.60
40636;DHT22;26642;55.766;37.828;2023-02-25T07:24:44;9.70;58.70
40636;DHT22;26642;55.766;37.828;2023-02-25T07:27:12;9.70;58.60
40636;DHT22;26642;55.766;37.828;2023-02-25T07:29:39;9.70;58.60
40636;DHT22;26642;55.766;37.828;2023-02-25T07:32:05;9.70;58.60
40636;DHT22;26642;55.766;37.828;2023-02-25T07:34:34;9.80;58.60
40636;DHT22;26642;55.766;37.828;2023-02-25T07:37:00;9.80;58.50
40636;DHT22;26642;55.766;37.828;2023-02-25T07:39:26;9.80;58.70
40636;DHT22;26642;55.766;37.828;2023-02-25T07:41:52;9.80;58.60
40636;DHT22;26642;55.766;37.828;2023-02-25T07:44:19;9.90;58.90
40636;DHT22;26642;55.766;37.828;2023-02-25T07:46:45;9.90;58.90
40636;DHT22;26642;55.766;37.828;2023-02-25T07:49:11;9.90;58.90
40636;DHT22;26642;55.766;37.828;2023-02-25T07:51:36;9.90;59.10
40636;DHT22;26642;55.766;37.828;2023-02-25T07:54:03;9.90;59.00
40636;DHT22;26642;55.766;37.828;2023-02-25T07:56:29;9.90;59.10
40636;DHT22;26642;55.766;37.828;2023-02-25T07:58:55;9.90;59.10
40636;DHT22;26642;55.766;37.828;2023-02-25T08:03:53;10.00;59.50
40636;DHT22;26642;55.766;37.828;2023-02-25T08:06:20;10.00;59.50
40636;DHT22;26642;55.766;37.828;2023-02-25T08:08:46;10.00;59.40
40636;DHT22;26642;55.766;37.828;2023-02-25T08:11:14;10.00;59.50
40636;DHT22;26642;55.766;37.828;2023-02-25T08:13:40;10.00;59.60
40636;DHT22;26642;55.766;37.828;2023-02-25T08:16:11;10.10;59.50
40636;DHT22;26642;55.766;37.828;2023-02-25T08:18:38;10.10;59.30
40636;DHT22;26642;55.766;37.828;2023-02-25T08:21:11;10.10;59.20
40636;DHT22;26642;55.766;37.828;2023-02-25T08:23:37;10.10;59.40
40636;DHT22;26642;55.766;37.828;2023-02-25T08:26:05;10.20;59.90
40636;DHT22;26642;55.766;37.828;2023-02-25T08:28:32;10.10;60.20
40636;DHT22;26642;55.766;37.828;2023-02-25T08:31:00;10.20;60.00
40636;DHT22;26642;55.766;37.828;2023-02-25T08:33:27;10.20;66.90
40636;DHT22;26642;55.766;37.828;2023-02-25T08:35:54;10.40;64.20
40636;DHT22;26642;55.766;37.828;2023-02-25T08:38:20;10.50;65.50
40636;DHT22;26642;55.766;37.828;2023-02-25T08:40:46;10.50;63.30
40636;DHT22;26642;55.766;37.828;2023-02-25T08:43:12;10.60;62.60
40636;DHT22;26642;55.766;37.828;2023-02-25T08:45:40;10.60;61.90
40636;DHT22;26642;55.766;37.828;2023-02-25T08:48:07;10.60;61.30
40636;DHT22;26642;55.766;37.828;2023-02-25T08:50:33;10.60;61.00
40636;DHT22;26642;55.766;37.828;2023-02-25T08:52:59;10.60;60.60
40636;DHT22;26642;55.766;37.828;2023-02-25T08:55:24;10.60;60.40
40636;DHT22;26642;55.766;37.828;2023-02-25T08:57:51;10.60;60.10
40636;DHT22;26642;55.766;37.828;2023-02-25T09:00:17;10.70;59.90
40636;DHT22;26642;55.766;37.828;2023-02-25T09:02:46;10.60;59.90
40636;DHT22;26642;55.766;37.828;2023-02-25T09:05:12;10.80;65.30
40636;DHT22;26642;55.766;37.828;2023-02-25T09:07:38;10.90;67.10
40636;DHT22;26642;55.766;37.828;2023-02-25T09:10:05;11.20;67.90
40636;DHT22;26642;55.766;37.828;2023-02-25T09:12:32;11.60;66.90
40636;DHT22;26642;55.766;37.828;2023-02-25T09:14:58;11.90;66.60
40636;DHT22;26642;55.766;37.828;2023-02-25T09:17:24;12.10;65.70
40636;DHT22;26642;55.766;37.828;2023-02-25T09:19:50;12.30;65.00
40636;DHT22;26642;55.766;37.828;2023-02-25T09:22:16;12.30;64.00
40636;DHT22;26642;55.766;37.828;2023-02-25T09:24:44;12.50;63.30
40636;DHT22;26642;55.766;37.828;2023-02-25T09:27:11;12.40;61.80
40636;DHT22;26642;55.766;37.828;2023-02-25T09:29:38;12.60;63.40
40636;DHT22;26642;55.766;37.828;2023-02-25T09:32:05;12.70;63.10
40636;DHT22;26642;55.766;37.828;2023-02-25T09:34:31;12.90;62.70
40636;DHT22;26642;55.766;37.828;2023-02-25T09:37:03;13.10;62.50
40636;DHT22;26642;55.766;37.828;2023-02-25T09:39:29;13.40;61.70
40636;DHT22;26642;55.766;37.828;2023-02-25T09:42:08;13.50;61.00
40636;DHT22;26642;55.766;37.828;2023-02-25T09:44:45;13.70;60.60
40636;DHT22;26642;55.766;37.828;2023-02-25T09:49:51;13.90;59.50
40636;DHT22;26642;55.766;37.828;2023-02-25T09:52:41;14.00;59.40
40636;DHT22;26642;55.766;37.828;2023-02-25T09:55:18;14.10;59.10
40636;DHT22;26642;55.766;37.828;2023-02-25T09:57:56;14.20;58.90
40636;DHT22;26642;55.766;37.828;2023-02-25T10:00:24;14.30;58.70
40636;DHT22;26642;55.766;37.828;2023-02-25T10:03:06;14.30;58.50
40636;DHT22;26642;55.766;37.828;2023-02-25T10:05:48;14.40;58.10
40636;DHT22;26642;55.766;37.828;2023-02-25T10:08:24;14.50;57.90
40636;DHT22;26642;55.766;37.828;2023-02-25T10:11:11;14.60;57.60
40636;DHT22;26642;55.766;37.828;2023-02-25T10:14:19;14.70;57.40
40636;DHT22;26642;55.766;37.828;2023-02-25T10:23:00;14.90;57.20
40636;DHT22;26642;55.766;37.828;2023-02-25T10:25:34;14.80;57.50
40636;DHT22;26642;55.766;37.828;2023-02-25T10:28:05;14.90;57.50
40636;DHT22;26642;55.766;37.828;2023-02-25T10:33:20;15.00;57.50
40636;DHT22;26642;55.766;37.828;2023-02-25T10:35:48;15.00;57.40
40636;DHT22;26642;55.766;37.828;2023-02-25T10:38:17;15.10;57.40
40636;DHT22;26642;55.766;37.828;2023-02-25T10:40:43;15.10;57.20
40636;DHT22;26642;55.766;37.828;2023-02-25T10:43:18;15.20;57.00
40636;DHT22;26642;55.766;37.828;2023-02-25T10:47:19;15.30;56.50
40636;DHT22;26642;55.766;37.828;2023-02-25T11:01:13;14.80;53.10
40636;DHT22;26642;55.766;37.828;2023-02-25T11:06:20;14.20;53.10
40636;DHT22;26642;55.766;37.828;2023-02-25T11:08:47;13.90;54.50
40636;DHT22;26642;55.766;37.828;2023-02-25T11:11:25;13.70;55.90
40636;DHT22;26642;55.766;37.828;2023-02-25T11:14:01;13.50;55.40
40636;DHT22;26642;55.766;37.828;2023-02-25T11:16:29;13.30;55.10
40636;DHT22;26642;55.766;37.828;2023-02-25T11:18:59;13.10;55.30
40636;DHT22;26642;55.766;37.828;2023-02-25T11:21:31;12.90;55.30
40636;DHT22;26642;55.766;37.828;2023-02-25T11:24:05;12.70;55.70
40636;DHT22;26642;55.766;37.828;2023-02-25T11:26:36;12.50;56.10
40636;DHT22;26642;55.766;37.828;2023-02-25T11:29:54;12.30;56.40
40636;DHT22;26642;55.766;37.828;2023-02-25T11:32:12;12.10;56.80
40636;DHT22;26642;55.766;37.828;2023-02-25T11:34:46;12.10;60.60
40636;DHT22;26642;55.766;37.828;2023-02-25T11:40:00;12.10;59.30
40636;DHT22;26642;55.766;37.828;2023-02-25T11:42:27;12.00;58.50
40636;DHT22;26642;55.766;37.828;2023-02-25T11:45:02;11.90;58.30
40636;DHT22;26642;55.766;37.828;2023-02-25T11:47:35;11.80;58.40
40636;DHT22;26642;55.766;37.828;2023-02-25T11:50:21;11.70;60.30
40636;DHT22;26642;55.766;37.828;2023-02-25T11:55:44;11.50;59.90
40636;DHT22;26642;55.766;37.828;2023-02-25T11:58:32;11.40;59.70
40636;DHT22;26642;55.766;37.828;2023-02-25T12:01:25;11.30;59.80
40636;DHT22;26642;55.766;37.828;2023-02-25T12:04:16;11.30;60.00
40636;DHT22;26642;55.766;37.828;2023-02-25T12:10:16;11.10;60.60
40636;DHT22;26642;55.766;37.828;2023-02-25T12:34:56;10.30;61.80
40636;DHT22;26642;55.766;37.828;2023-02-25T12:40:48;10.00;62.50
40636;DHT22;26642;55.766;37.828;2023-02-25T12:43:44;9.90;62.80
40636;DHT22;26642;55.766;37.828;2023-02-25T12:54:46;9.60;63.40
40636;DHT22;26642;55.766;37.828;2023-02-25T13:00:40;9.50;64.00
40636;DHT22;26642;55.766;37.828;2023-02-25T13:11:28;9.30;64.60
40636;DHT22;26642;55.766;37.828;2023-02-25T13:25:22;9.50;65.70
40636;DHT22;26642;55.766;37.828;2023-02-25T13:30:50;9.70;66.00
40636;DHT22;26642;55.766;37.828;2023-02-25T13:33:34;9.70;66.00
40636;DHT22;26642;55.766;37.828;2023-02-25T13:41:46;9.90;66.00
40636;DHT22;26642;55.766;37.828;2023-02-25T13:56:03;10.10;65.40
40636;DHT22;26642;55.766;37.828;2023-02-25T14:12:53;10.20;65.30
40636;DHT22;26642;55.766;37.828;2023-02-25T14:20:58;10.30;65.70
40636;DHT22;26642;55.766;37.828;2023-02-25T14:23:59;10.30;65.50
40636;DHT22;26642;55.766;37.828;2023-02-25T14:26:41;10.30;65.50
40636;DHT22;26642;55.766;37.828;2023-02-25T14:30:03;10.40;65.40
40636;DHT22;26642;55.766;37.828;2023-02-25T14:38:05;10.40;65.10
40636;DHT22;26642;55.766;37.828;2023-02-25T14:45:47;10.40;64.90
40636;DHT22;26642;55.766;37.828;2023-02-25T14:48:30;10.40;64.80
40636;DHT22;26642;55.766;37.828;2023-02-25T15:21:40;10.50;64.60
40636;DHT22;26642;55.766;37.828;2023-02-25T15:26:54;10.50;64.40
40636;DHT22;26642;55.766;37.828;2023-02-25T15:34:59;10.50;64.50
40636;DHT22;26642;55.766;37.828;2023-02-25T15:37:31;10.50;64.70
40636;DHT22;26642;55.766;37.828;2023-02-25T15:42:55;10.50;64.70
40636;DHT22;26642;55.766;37.828;2023-02-25T16:08:36;10.60;64.40
40636;DHT22;26642;55.766;37.828;2023-02-25T16:11:05;10.50;64.40
40636;DHT22;26642;55.766;37.828;2023-02-25T16:13:40;10.50;64.60
40636;DHT22;26642;55.766;37.828;2023-02-25T16:16:08;10.50;65.00
40636;DHT22;26642;55.766;37.828;2023-02-25T16:18:41;10.50;65.80
40636;DHT22;26642;55.766;37.828;2023-02-25T16:21:26;10.50;66.10
40636;DHT22;26642;55.766;37.828;2023-02-25T16:23:54;10.60;66.20
40636;DHT22;26642;55.766;37.828;2023-02-25T16:40:02;10.60;66.30
40636;DHT22;26642;55.766;37.828;2023-02-25T16:42:32;10.50;66.50
40636;DHT22;26642;55.766;37.828;2023-02-25T16:45:01;10.60;66.60
40636;DHT22;26642;55.766;37.828;2023-02-25T16:47:31;10.50;66.60
40636;DHT22;26642;55.766;37.828;2023-02-25T16:50:00;10.60;66.80
40636;DHT22;26642;55.766;37.828;2023-02-25T16:52:36;10.50;66.90
40636;DHT22;26642;55.766;37.828;2023-02-25T16:55:05;10.50;67.00
40636;DHT22;26642;55.766;37.828;2023-02-25T16:57:34;10.60;67.20
40636;DHT22;26642;55.766;37.828;2023-02-25T17:00:18;10.60;67.20
40636;DHT22;26642;55.766;37.828;2023-02-25T17:03:01;10.50;67.00
40636;DHT22;26642;55.766;37.828;2023-02-25T17:05:36;10.50;67.10
40636;DHT22;26642;55.766;37.828;2023-02-25T17:08:09;10.60;67.10
40636;DHT22;26642;55.766;37.828;2023-02-25T17:10:50;10.50;66.70
40636;DHT22;26642;55.766;37.828;2023-02-25T17:13:39;10.50;66.60
40636;DHT22;26642;55.766;37.828;2023-02-25T17:16:12;10.50;66.60
40636;DHT22;26642;55.766;37.828;2023-02-25T17:18:47;10.50;66.30
40636;DHT22;26642;55.766;37.828;2023-02-25T17:21:26;10.50;66.30
40636;DHT22;26642;55.766;37.828;2023-02-25T17:23:55;10.40;66.30
40636;DHT22;26642;55.766;37.828;2023-02-25T17:26:22;10.50;66.40
40636;DHT22;26642;55.766;37.828;2023-02-25T17:28:51;10.50;66.50
40636;DHT22;26642;55.766;37.828;2023-02-25T17:31:23;10.50;66.30
40636;DHT22;26642;55.766;37.828;2023-02-25T17:34:02;10.50;66.60
40636;DHT22;26642;55.766;37.828;2023-02-25T17:36:33;10.50;66.00
40636;DHT22;26642;55.766;37.828;2023-02-25T17:39:07;10.60;66.10
40636;DHT22;26642;55.766;37.828;2023-02-25T17:41:36;10.60;66.20
40636;DHT22;26642;55.766;37.828;2023-02-25T17:46:58;10.60;66.20
40636;DHT22;26642;55.766;37.828;2023-02-25T17:49:34;10.60;66.10
40636;DHT22;26642;55.766;37.828;2023-02-25T17:52:06;10.60;66.00
40636;DHT22;26642;55.766;37.828;2023-02-25T17:54:45;10.60;65.80
40636;DHT22;26642;55.766;37.828;2023-02-25T17:57:17;10.60;65.80
40636;DHT22;26642;55.766;37.828;2023-02-25T17:59:54;10.60;65.70
40636;DHT22;26642;55.766;37.828;2023-02-25T18:04:48;10.60;65.70
40636;DHT22;26642;55.766;37.828;2023-02-25T18:09:52;10.60;65.60
40636;DHT22;26642;55.766;37.828;2023-02-25T18:14:52;10.60;65.50
40636;DHT22;26642;55.766;37.828;2023-02-25T18:17:38;10.60;65.50
40636;DHT22;26642;55.766;37.828;2023-02-25T18:20:07;10.60;65.40
40636;DHT22;26642;55.766;37.828;2023-02-25T18:22:38;10.60;65.30
40636;DHT22;26642;55.766;37.828;2023-02-25T18:25:26;10.60;65.20
40636;DHT22;26642;55.766;37.828;2023-02-25T18:27:53;10.60;65.20
40636;DHT22;26642;55.766;37.828;2023-02-25T18:30:22;10.70;65.10
40636;DHT22;26642;55.766;37.828;2023-02-25T18:32:49;10.60;65.20
40636;DHT22;26642;55.766;37.828;2023-02-25T18:35:16;10.70;65.10
40636;DHT22;26642;55.766;37.828;2023-02-25T18:37:44;10.60;65.20
40636;DHT22;26642;55.766;37.828;2023-02-25T18:40:22;10.70;65.10
40636;DHT22;26642;55.766;37.828;2023-02-25T18:42:49;10.70;65.20
40636;DHT22;26642;55.766;37.828;2023-02-25T18:45:18;10.70;65.20
40636;DHT22;26642;55.766;37.828;2023-02-25T18:47:46;10.70;65.40
40636;DHT22;26642;55.766;37.828;2023-02-25T18:50:13;10.70;66.10
40636;DHT22;26642;55.766;37.828;2023-02-25T18:52:39;10.70;65.60
40636;DHT22;26642;55.766;37.828;2023-02-25T18:55:07;10.60;65.60
40636;DHT22;26642;55.766;37.828;2023-02-25T18:57:34;10.60;65.50
40636;DHT22;26642;55.766;37.828;2023-02-25T19:00:00;10.60;65.50
40636;DHT22;26642;55.766;37.828;2023-02-25T19:02:27;10.60;65.50
40636;DHT22;26642;55.766;37.828;2023-02-25T19:04:53;10.60;65.40
40636;DHT22;26642;55.766;37.828;2023-02-25T19:07:24;10.60;65.30
40636;DHT22;26642;55.766;37.828;2023-02-25T19:09:51;10.60;65.10
40636;DHT22;26642;55.766;37.828;2023-02-25T19:12:17;10.60;65.00
40636;DHT22;26642;55.766;37.828;2023-02-25T19:14:45;10.60;65.00
40636;DHT22;26642;55.766;37.828;2023-02-25T19:17:16;10.60;65.00
40636;DHT22;26642;55.766;37.828;2023-02-25T19:19:42;10.60;64.90
40636;DHT22;26642;55.766;37.828;2023-02-25T19:22:12;10.60;65.00
40636;DHT22;26642;55.766;37.828;2023-02-25T19:24:41;10.60;64.90
40636;DHT22;26642;55.766;37.828;2023-02-25T19:27:17;10.60;64.80
40636;DHT22;26642;55.766;37.828;2023-02-25T19:29:49;10.60;64.90
40636;DHT22;26642;55.766;37.828;2023-02-25T19:32:16;10.60;65.00
40636;DHT22;26642;55.766;37.828;2023-02-25T19:34:47;10.60;65.10
40636;DHT22;26642;55.766;37.828;2023-02-25T19:37:14;10.60;65.00
40636;DHT22;26642;55.766;37.828;2023-02-25T19:39:41;10.60;64.90
40636;DHT22;26642;55.766;37.828;2023-02-25T19:42:08;10.60;65.00
40636;DHT22;26642;55.766;37.828;2023-02-25T19:44:36;10.60;65.00
40636;DHT22;26642;55.766;37.828;2023-02-25T19:47:06;10.60;64.90
40636;DHT22;26642;55.766;37.828;2023-02-25T19:49:32;10.60;64.90
40636;DHT22;26642;55.766;37.828;2023-02-25T19:51:58;10.60;64.80
40636;DHT22;26642;55.766;37.828;2023-02-25T19:54:27;10.60;64.70
40636;DHT22;26642;55.766;37.828;2023-02-25T19:56:53;10.60;64.80